Heilwood, Pennsylvania
Current Conditions -  °F | °C
As of 10:55 PM on Thursday 18 Dec 2014 (Local Time) from KIDI Reporting Station
Overcast Overcast  
Wind Chill: 21°   Ceiling: 1000
Heat Index: 28°   Visibility: 8mi
Dew Point: 25°   Wind: 7mph
Humidity: 86%   Direction: 290°WNW
Pressure: 30.13"   Gusts: NA
Location:  40.62°N, 78.92°W
Report Text: KIDI 190355Z AUTO 29006KT 8SM OVC010 M02/M04 A3013 RMK A01
Loading
Personal Weather Stations






























Interactive Weather Map New forecast layout! Learn more

10-Day Weather Forecast

Advertisements
Track Severe Weather on mobile